sensor_id;sensor_type;location;lat;lon;timestamp;P1;durP1;ratioP1;P2;durP2;ratioP2
22764;SDS011;11549;50.852;3.816;2023-12-07T00:00:23;101.75;;;20.95;;
22764;SDS011;11549;50.852;3.816;2023-12-07T00:02:52;167.57;;;24.45;;
22764;SDS011;11549;50.852;3.816;2023-12-07T00:05:22;290.27;;;29.27;;
22764;SDS011;11549;50.852;3.816;2023-12-07T00:07:58;328.25;;;29.40;;
22764;SDS011;11549;50.852;3.816;2023-12-07T00:11:35;240.68;;;28.48;;
22764;SDS011;11549;50.852;3.816;2023-12-07T00:18:16;418.17;;;34.28;;
22764;SDS011;11549;50.852;3.816;2023-12-07T00:20:47;286.35;;;32.33;;
22764;SDS011;11549;50.852;3.816;2023-12-07T00:23:15;474.42;;;37.92;;
22764;SDS011;11549;50.852;3.816;2023-12-07T00:25:44;310.08;;;31.58;;
22764;SDS011;11549;50.852;3.816;2023-12-07T00:28:13;233.35;;;29.50;;
22764;SDS011;11549;50.852;3.816;2023-12-07T00:30:41;186.30;;;27.77;;
22764;SDS011;11549;50.852;3.816;2023-12-07T00:33:10;399.58;;;35.85;;
22764;SDS011;11549;50.852;3.816;2023-12-07T00:35:38;411.45;;;37.38;;
22764;SDS011;11549;50.852;3.816;2023-12-07T00:38:08;432.85;;;39.53;;
22764;SDS011;11549;50.852;3.816;2023-12-07T00:40:37;298.00;;;33.60;;
22764;SDS011;11549;50.852;3.816;2023-12-07T00:43:06;325.23;;;34.80;;
22764;SDS011;11549;50.852;3.816;2023-12-07T00:45:35;481.05;;;41.17;;
22764;SDS011;11549;50.852;3.816;2023-12-07T00:48:03;349.80;;;37.17;;
22764;SDS011;11549;50.852;3.816;2023-12-07T00:50:32;490.60;;;42.45;;
22764;SDS011;11549;50.852;3.816;2023-12-07T00:53:01;487.73;;;40.90;;
22764;SDS011;11549;50.852;3.816;2023-12-07T00:55:31;246.90;;;31.33;;
22764;SDS011;11549;50.852;3.816;2023-12-07T00:57:59;146.57;;;28.83;;
22764;SDS011;11549;50.852;3.816;2023-12-07T01:00:28;273.02;;;33.92;;
22764;SDS011;11549;50.852;3.816;2023-12-07T01:02:56;226.80;;;32.65;;
22764;SDS011;11549;50.852;3.816;2023-12-07T01:05:25;248.68;;;35.15;;
22764;SDS011;11549;50.852;3.816;2023-12-07T01:07:53;242.98;;;34.53;;
22764;SDS011;11549;50.852;3.816;2023-12-07T01:10:21;186.60;;;33.40;;
22764;SDS011;11549;50.852;3.816;2023-12-07T01:12:52;212.25;;;33.78;;
22764;SDS011;11549;50.852;3.816;2023-12-07T01:15:21;141.10;;;31.77;;
22764;SDS011;11549;50.852;3.816;2023-12-07T01:17:49;181.60;;;34.67;;
22764;SDS011;11549;50.852;3.816;2023-12-07T01:20:20;120.55;;;33.50;;
22764;SDS011;11549;50.852;3.816;2023-12-07T01:22:48;153.50;;;33.50;;
22764;SDS011;11549;50.852;3.816;2023-12-07T01:25:17;143.48;;;32.95;;
22764;SDS011;11549;50.852;3.816;2023-12-07T01:27:49;162.70;;;33.33;;
22764;SDS011;11549;50.852;3.816;2023-12-07T01:30:19;165.88;;;32.00;;
22764;SDS011;11549;50.852;3.816;2023-12-07T01:32:47;93.85;;;30.35;;
22764;SDS011;11549;50.852;3.816;2023-12-07T01:35:17;106.45;;;31.70;;
22764;SDS011;11549;50.852;3.816;2023-12-07T01:37:45;101.93;;;31.02;;
22764;SDS011;11549;50.852;3.816;2023-12-07T01:40:14;103.07;;;31.45;;
22764;SDS011;11549;50.852;3.816;2023-12-07T01:42:49;126.65;;;31.08;;
22764;SDS011;11549;50.852;3.816;2023-12-07T01:45:20;111.00;;;31.30;;
22764;SDS011;11549;50.852;3.816;2023-12-07T01:47:49;96.90;;;28.35;;
22764;SDS011;11549;50.852;3.816;2023-12-07T01:50:19;90.15;;;29.65;;
22764;SDS011;11549;50.852;3.816;2023-12-07T01:52:52;92.55;;;28.85;;
22764;SDS011;11549;50.852;3.816;2023-12-07T01:55:24;86.60;;;30.23;;
22764;SDS011;11549;50.852;3.816;2023-12-07T01:57:54;91.40;;;29.83;;
22764;SDS011;11549;50.852;3.816;2023-12-07T02:00:24;95.22;;;29.85;;
22764;SDS011;11549;50.852;3.816;2023-12-07T02:02:54;96.15;;;30.90;;
22764;SDS011;11549;50.852;3.816;2023-12-07T02:05:23;96.57;;;30.05;;
22764;SDS011;11549;50.852;3.816;2023-12-07T02:07:53;99.30;;;30.85;;
22764;SDS011;11549;50.852;3.816;2023-12-07T02:10:22;125.63;;;31.98;;
22764;SDS011;11549;50.852;3.816;2023-12-07T02:12:50;126.53;;;32.42;;
22764;SDS011;11549;50.852;3.816;2023-12-07T02:15:20;103.15;;;32.10;;
22764;SDS011;11549;50.852;3.816;2023-12-07T02:17:52;97.78;;;30.15;;
22764;SDS011;11549;50.852;3.816;2023-12-07T02:20:30;97.65;;;30.05;;
22764;SDS011;11549;50.852;3.816;2023-12-07T02:23:06;87.22;;;28.25;;
22764;SDS011;11549;50.852;3.816;2023-12-07T02:25:36;88.22;;;28.33;;
22764;SDS011;11549;50.852;3.816;2023-12-07T02:28:10;81.15;;;27.35;;
22764;SDS011;11549;50.852;3.816;2023-12-07T02:30:39;78.65;;;26.20;;
22764;SDS011;11549;50.852;3.816;2023-12-07T02:33:07;77.40;;;27.08;;
22764;SDS011;11549;50.852;3.816;2023-12-07T02:35:36;83.05;;;27.50;;
22764;SDS011;11549;50.852;3.816;2023-12-07T02:38:05;76.95;;;26.83;;
22764;SDS011;11549;50.852;3.816;2023-12-07T02:40:34;81.13;;;28.60;;
22764;SDS011;11549;50.852;3.816;2023-12-07T02:43:04;87.65;;;28.33;;
22764;SDS011;11549;50.852;3.816;2023-12-07T02:45:36;78.82;;;27.38;;
22764;SDS011;11549;50.852;3.816;2023-12-07T02:48:05;74.75;;;26.48;;
22764;SDS011;11549;50.852;3.816;2023-12-07T02:50:33;78.68;;;26.25;;
22764;SDS011;11549;50.852;3.816;2023-12-07T02:53:01;80.63;;;26.40;;
22764;SDS011;11549;50.852;3.816;2023-12-07T02:55:30;75.78;;;25.77;;
22764;SDS011;11549;50.852;3.816;2023-12-07T02:57:58;84.32;;;27.52;;
22764;SDS011;11549;50.852;3.816;2023-12-07T03:00:26;88.35;;;27.38;;
22764;SDS011;11549;50.852;3.816;2023-12-07T03:02:56;82.20;;;26.83;;
22764;SDS011;11549;50.852;3.816;2023-12-07T03:05:25;81.10;;;27.40;;
22764;SDS011;11549;50.852;3.816;2023-12-07T03:07:53;75.43;;;25.23;;
22764;SDS011;11549;50.852;3.816;2023-12-07T03:10:21;80.95;;;26.70;;
22764;SDS011;11549;50.852;3.816;2023-12-07T03:12:50;88.70;;;27.33;;
22764;SDS011;11549;50.852;3.816;2023-12-07T03:15:18;81.05;;;27.90;;
22764;SDS011;11549;50.852;3.816;2023-12-07T03:17:48;73.72;;;26.70;;
22764;SDS011;11549;50.852;3.816;2023-12-07T03:20:18;77.13;;;26.52;;
22764;SDS011;11549;50.852;3.816;2023-12-07T03:22:46;83.68;;;29.33;;
22764;SDS011;11549;50.852;3.816;2023-12-07T03:25:15;75.78;;;26.75;;
22764;SDS011;11549;50.852;3.816;2023-12-07T03:27:43;76.20;;;26.38;;
22764;SDS011;11549;50.852;3.816;2023-12-07T03:30:12;76.55;;;27.90;;
22764;SDS011;11549;50.852;3.816;2023-12-07T03:32:41;73.45;;;26.60;;
22764;SDS011;11549;50.852;3.816;2023-12-07T03:35:09;78.65;;;26.73;;
22764;SDS011;11549;50.852;3.816;2023-12-07T03:37:40;79.82;;;27.98;;
22764;SDS011;11549;50.852;3.816;2023-12-07T03:40:08;78.40;;;26.85;;
22764;SDS011;11549;50.852;3.816;2023-12-07T03:42:38;71.60;;;27.38;;
22764;SDS011;11549;50.852;3.816;2023-12-07T03:45:21;69.20;;;27.73;;
22764;SDS011;11549;50.852;3.816;2023-12-07T03:47:50;79.20;;;27.83;;
22764;SDS011;11549;50.852;3.816;2023-12-07T03:50:19;76.63;;;28.55;;
22764;SDS011;11549;50.852;3.816;2023-12-07T03:52:49;70.97;;;27.65;;
22764;SDS011;11549;50.852;3.816;2023-12-07T03:55:17;72.22;;;28.42;;
22764;SDS011;11549;50.852;3.816;2023-12-07T03:57:46;71.63;;;28.55;;
22764;SDS011;11549;50.852;3.816;2023-12-07T04:00:14;70.55;;;28.08;;
22764;SDS011;11549;50.852;3.816;2023-12-07T04:02:42;77.03;;;27.95;;
22764;SDS011;11549;50.852;3.816;2023-12-07T04:05:11;73.03;;;29.73;;
22764;SDS011;11549;50.852;3.816;2023-12-07T04:07:40;72.43;;;29.13;;
22764;SDS011;11549;50.852;3.816;2023-12-07T04:10:10;73.47;;;29.73;;
22764;SDS011;11549;50.852;3.816;2023-12-07T04:12:39;74.22;;;29.67;;
22764;SDS011;11549;50.852;3.816;2023-12-07T04:15:08;80.25;;;32.05;;
22764;SDS011;11549;50.852;3.816;2023-12-07T04:17:37;81.38;;;33.28;;
22764;SDS011;11549;50.852;3.816;2023-12-07T04:20:06;91.07;;;34.28;;
22764;SDS011;11549;50.852;3.816;2023-12-07T04:22:36;96.13;;;35.22;;
22764;SDS011;11549;50.852;3.816;2023-12-07T04:25:04;94.40;;;36.42;;
22764;SDS011;11549;50.852;3.816;2023-12-07T04:27:35;84.57;;;36.45;;
22764;SDS011;11549;50.852;3.816;2023-12-07T04:30:04;101.63;;;38.20;;
22764;SDS011;11549;50.852;3.816;2023-12-07T04:32:33;95.72;;;36.65;;
22764;SDS011;11549;50.852;3.816;2023-12-07T04:35:01;91.95;;;36.85;;
22764;SDS011;11549;50.852;3.816;2023-12-07T04:37:33;97.85;;;36.67;;
22764;SDS011;11549;50.852;3.816;2023-12-07T04:40:01;88.47;;;35.05;;
22764;SDS011;11549;50.852;3.816;2023-12-07T04:42:32;81.65;;;34.08;;
22764;SDS011;11549;50.852;3.816;2023-12-07T04:45:01;80.30;;;33.63;;
22764;SDS011;11549;50.852;3.816;2023-12-07T04:47:30;79.45;;;31.90;;
22764;SDS011;11549;50.852;3.816;2023-12-07T04:50:00;72.07;;;32.38;;
22764;SDS011;11549;50.852;3.816;2023-12-07T04:52:28;76.93;;;32.88;;
22764;SDS011;11549;50.852;3.816;2023-12-07T04:54:59;73.85;;;32.47;;
22764;SDS011;11549;50.852;3.816;2023-12-07T04:57:27;72.18;;;31.70;;
22764;SDS011;11549;50.852;3.816;2023-12-07T04:59:55;70.45;;;31.73;;
22764;SDS011;11549;50.852;3.816;2023-12-07T05:02:25;69.18;;;32.35;;
22764;SDS011;11549;50.852;3.816;2023-12-07T05:04:54;68.25;;;30.67;;
22764;SDS011;11549;50.852;3.816;2023-12-07T05:07:23;73.75;;;32.58;;
22764;SDS011;11549;50.852;3.816;2023-12-07T05:09:51;75.28;;;32.95;;
22764;SDS011;11549;50.852;3.816;2023-12-07T05:12:20;72.40;;;32.50;;
22764;SDS011;11549;50.852;3.816;2023-12-07T05:14:48;63.97;;;29.73;;
22764;SDS011;11549;50.852;3.816;2023-12-07T05:17:18;66.80;;;30.80;;
22764;SDS011;11549;50.852;3.816;2023-12-07T05:19:47;62.20;;;28.45;;
22764;SDS011;11549;50.852;3.816;2023-12-07T05:22:16;65.70;;;30.10;;
22764;SDS011;11549;50.852;3.816;2023-12-07T05:24:44;66.00;;;31.00;;
22764;SDS011;11549;50.852;3.816;2023-12-07T05:27:13;64.25;;;29.80;;
22764;SDS011;11549;50.852;3.816;2023-12-07T05:29:41;70.03;;;30.35;;
22764;SDS011;11549;50.852;3.816;2023-12-07T05:32:10;62.28;;;29.38;;
22764;SDS011;11549;50.852;3.816;2023-12-07T05:34:39;59.90;;;30.90;;
22764;SDS011;11549;50.852;3.816;2023-12-07T05:37:09;60.22;;;27.55;;
22764;SDS011;11549;50.852;3.816;2023-12-07T05:39:37;60.50;;;29.80;;
22764;SDS011;11549;50.852;3.816;2023-12-07T05:42:06;58.78;;;28.40;;
22764;SDS011;11549;50.852;3.816;2023-12-07T05:44:34;60.05;;;30.15;;
22764;SDS011;11549;50.852;3.816;2023-12-07T05:47:02;62.10;;;29.08;;
22764;SDS011;11549;50.852;3.816;2023-12-07T05:49:31;62.83;;;30.38;;
22764;SDS011;11549;50.852;3.816;2023-12-07T05:51:59;55.78;;;27.85;;
22764;SDS011;11549;50.852;3.816;2023-12-07T05:54:30;54.35;;;26.02;;
22764;SDS011;11549;50.852;3.816;2023-12-07T05:56:58;52.05;;;25.95;;
22764;SDS011;11549;50.852;3.816;2023-12-07T05:59:26;54.30;;;25.38;;
22764;SDS011;11549;50.852;3.816;2023-12-07T06:01:55;54.92;;;25.83;;
22764;SDS011;11549;50.852;3.816;2023-12-07T06:04:23;48.25;;;24.17;;
22764;SDS011;11549;50.852;3.816;2023-12-07T06:06:51;50.92;;;24.80;;
22764;SDS011;11549;50.852;3.816;2023-12-07T06:09:20;46.45;;;24.42;;
22764;SDS011;11549;50.852;3.816;2023-12-07T06:11:50;43.28;;;22.55;;
22764;SDS011;11549;50.852;3.816;2023-12-07T06:14:19;48.10;;;24.40;;
22764;SDS011;11549;50.852;3.816;2023-12-07T06:16:49;44.58;;;22.52;;
22764;SDS011;11549;50.852;3.816;2023-12-07T06:19:17;44.63;;;23.20;;
22764;SDS011;11549;50.852;3.816;2023-12-07T06:21:46;43.38;;;24.05;;
22764;SDS011;11549;50.852;3.816;2023-12-07T06:24:14;43.42;;;22.33;;
22764;SDS011;11549;50.852;3.816;2023-12-07T06:26:42;49.45;;;23.60;;
22764;SDS011;11549;50.852;3.816;2023-12-07T06:29:12;50.90;;;24.48;;
22764;SDS011;11549;50.852;3.816;2023-12-07T06:31:42;45.97;;;23.00;;
22764;SDS011;11549;50.852;3.816;2023-12-07T06:34:11;44.22;;;22.48;;
22764;SDS011;11549;50.852;3.816;2023-12-07T06:36:39;41.83;;;22.38;;
22764;SDS011;11549;50.852;3.816;2023-12-07T06:39:08;43.35;;;23.15;;
22764;SDS011;11549;50.852;3.816;2023-12-07T06:41:36;47.53;;;24.25;;
22764;SDS011;11549;50.852;3.816;2023-12-07T06:44:05;48.60;;;23.20;;
22764;SDS011;11549;50.852;3.816;2023-12-07T06:46:34;41.40;;;22.38;;
22764;SDS011;11549;50.852;3.816;2023-12-07T06:49:03;46.15;;;23.33;;
22764;SDS011;11549;50.852;3.816;2023-12-07T06:51:31;45.22;;;22.75;;
22764;SDS011;11549;50.852;3.816;2023-12-07T06:54:00;46.90;;;23.10;;
22764;SDS011;11549;50.852;3.816;2023-12-07T06:56:28;49.30;;;23.58;;
22764;SDS011;11549;50.852;3.816;2023-12-07T06:58:56;44.90;;;22.70;;
22764;SDS011;11549;50.852;3.816;2023-12-07T07:01:25;42.03;;;22.77;;
22764;SDS011;11549;50.852;3.816;2023-12-07T07:03:55;43.63;;;22.85;;
22764;SDS011;11549;50.852;3.816;2023-12-07T07:06:23;42.95;;;23.33;;
22764;SDS011;11549;50.852;3.816;2023-12-07T07:08:52;45.88;;;22.67;;
22764;SDS011;11549;50.852;3.816;2023-12-07T07:11:22;48.20;;;24.58;;
22764;SDS011;11549;50.852;3.816;2023-12-07T07:13:51;47.05;;;23.75;;
22764;SDS011;11549;50.852;3.816;2023-12-07T07:16:19;46.55;;;24.50;;
22764;SDS011;11549;50.852;3.816;2023-12-07T07:18:47;49.03;;;26.00;;
22764;SDS011;11549;50.852;3.816;2023-12-07T07:21:17;45.97;;;24.65;;
22764;SDS011;11549;50.852;3.816;2023-12-07T07:23:47;48.97;;;25.38;;
22764;SDS011;11549;50.852;3.816;2023-12-07T07:26:16;48.53;;;25.73;;
22764;SDS011;11549;50.852;3.816;2023-12-07T07:28:44;50.05;;;24.13;;
22764;SDS011;11549;50.852;3.816;2023-12-07T07:31:13;47.25;;;24.25;;
22764;SDS011;11549;50.852;3.816;2023-12-07T07:33:42;47.58;;;25.13;;
22764;SDS011;11549;50.852;3.816;2023-12-07T07:36:10;40.80;;;23.30;;
22764;SDS011;11549;50.852;3.816;2023-12-07T07:38:42;44.72;;;23.58;;
22764;SDS011;11549;50.852;3.816;2023-12-07T07:41:11;48.42;;;23.67;;
22764;SDS011;11549;50.852;3.816;2023-12-07T07:43:39;49.03;;;23.88;;
22764;SDS011;11549;50.852;3.816;2023-12-07T07:46:08;44.90;;;22.50;;
22764;SDS011;11549;50.852;3.816;2023-12-07T07:48:36;46.78;;;24.23;;
22764;SDS011;11549;50.852;3.816;2023-12-07T07:51:06;40.63;;;23.13;;
22764;SDS011;11549;50.852;3.816;2023-12-07T07:53:34;42.13;;;22.00;;
22764;SDS011;11549;50.852;3.816;2023-12-07T07:56:04;40.83;;;22.70;;
22764;SDS011;11549;50.852;3.816;2023-12-07T07:58:33;42.65;;;23.02;;
22764;SDS011;11549;50.852;3.816;2023-12-07T08:01:01;45.15;;;23.65;;
22764;SDS011;11549;50.852;3.816;2023-12-07T08:03:30;44.67;;;22.58;;
22764;SDS011;11549;50.852;3.816;2023-12-07T08:05:58;45.22;;;23.70;;
22764;SDS011;11549;50.852;3.816;2023-12-07T08:08:27;41.10;;;22.48;;
22764;SDS011;11549;50.852;3.816;2023-12-07T08:10:55;45.47;;;23.30;;
22764;SDS011;11549;50.852;3.816;2023-12-07T08:13:25;42.80;;;22.27;;
22764;SDS011;11549;50.852;3.816;2023-12-07T08:15:54;42.38;;;22.60;;
22764;SDS011;11549;50.852;3.816;2023-12-07T08:18:24;45.95;;;23.33;;
22764;SDS011;11549;50.852;3.816;2023-12-07T08:20:53;36.78;;;20.77;;
22764;SDS011;11549;50.852;3.816;2023-12-07T08:23:21;42.97;;;22.40;;
22764;SDS011;11549;50.852;3.816;2023-12-07T08:25:50;42.72;;;22.08;;
22764;SDS011;11549;50.852;3.816;2023-12-07T08:28:18;42.92;;;21.67;;
22764;SDS011;11549;50.852;3.816;2023-12-07T08:30:48;37.85;;;20.15;;
22764;SDS011;11549;50.852;3.816;2023-12-07T08:33:17;40.58;;;21.15;;
22764;SDS011;11549;50.852;3.816;2023-12-07T08:35:45;38.28;;;21.40;;
22764;SDS011;11549;50.852;3.816;2023-12-07T08:38:15;41.10;;;20.60;;
22764;SDS011;11549;50.852;3.816;2023-12-07T08:40:44;36.90;;;20.98;;
22764;SDS011;11549;50.852;3.816;2023-12-07T08:43:12;40.70;;;21.30;;
22764;SDS011;11549;50.852;3.816;2023-12-07T08:45:40;42.10;;;21.52;;
22764;SDS011;11549;50.852;3.816;2023-12-07T08:48:10;46.08;;;21.48;;
22764;SDS011;11549;50.852;3.816;2023-12-07T08:50:39;39.25;;;21.08;;
22764;SDS011;11549;50.852;3.816;2023-12-07T08:53:07;44.25;;;21.90;;
22764;SDS011;11549;50.852;3.816;2023-12-07T08:55:35;40.70;;;22.23;;
22764;SDS011;11549;50.852;3.816;2023-12-07T08:58:04;38.10;;;21.52;;
22764;SDS011;11549;50.852;3.816;2023-12-07T09:00:32;35.67;;;19.92;;
22764;SDS011;11549;50.852;3.816;2023-12-07T09:03:01;37.88;;;21.70;;
22764;SDS011;11549;50.852;3.816;2023-12-07T09:05:31;41.55;;;21.27;;
22764;SDS011;11549;50.852;3.816;2023-12-07T09:08:00;34.55;;;19.85;;
22764;SDS011;11549;50.852;3.816;2023-12-07T09:10:28;36.38;;;20.58;;
22764;SDS011;11549;50.852;3.816;2023-12-07T09:12:57;36.95;;;19.60;;
22764;SDS011;11549;50.852;3.816;2023-12-07T09:15:25;38.40;;;20.00;;
22764;SDS011;11549;50.852;3.816;2023-12-07T09:17:54;36.05;;;19.90;;
22764;SDS011;11549;50.852;3.816;2023-12-07T09:20:22;36.20;;;20.67;;
22764;SDS011;11549;50.852;3.816;2023-12-07T09:22:52;34.67;;;19.85;;
22764;SDS011;11549;50.852;3.816;2023-12-07T09:25:24;34.85;;;19.58;;
22764;SDS011;11549;50.852;3.816;2023-12-07T09:27:54;35.60;;;19.90;;
22764;SDS011;11549;50.852;3.816;2023-12-07T09:30:22;32.35;;;18.33;;
22764;SDS011;11549;50.852;3.816;2023-12-07T09:32:51;28.45;;;17.45;;
22764;SDS011;11549;50.852;3.816;2023-12-07T09:35:20;29.52;;;17.48;;
22764;SDS011;11549;50.852;3.816;2023-12-07T09:37:48;27.25;;;15.73;;
22764;SDS011;11549;50.852;3.816;2023-12-07T09:40:19;26.02;;;15.70;;
22764;SDS011;11549;50.852;3.816;2023-12-07T09:42:48;27.65;;;16.55;;
22764;SDS011;11549;50.852;3.816;2023-12-07T09:45:17;26.95;;;15.60;;
22764;SDS011;11549;50.852;3.816;2023-12-07T09:47:47;25.40;;;15.45;;
22764;SDS011;11549;50.852;3.816;2023-12-07T09:50:18;27.20;;;15.77;;
22764;SDS011;11549;50.852;3.816;2023-12-07T09:52:48;31.50;;;16.70;;
22764;SDS011;11549;50.852;3.816;2023-12-07T09:55:31;28.27;;;15.45;;
22764;SDS011;11549;50.852;3.816;2023-12-07T09:58:00;31.95;;;16.77;;
22764;SDS011;11549;50.852;3.816;2023-12-07T10:00:33;28.65;;;15.48;;
22764;SDS011;11549;50.852;3.816;2023-12-07T10:03:02;29.30;;;16.95;;
22764;SDS011;11549;50.852;3.816;2023-12-07T10:05:30;29.08;;;16.83;;
22764;SDS011;11549;50.852;3.816;2023-12-07T10:07:58;29.92;;;16.45;;
22764;SDS011;11549;50.852;3.816;2023-12-07T10:10:27;25.20;;;15.70;;
22764;SDS011;11549;50.852;3.816;2023-12-07T10:12:58;27.70;;;16.02;;
22764;SDS011;11549;50.852;3.816;2023-12-07T10:15:27;29.90;;;16.23;;
22764;SDS011;11549;50.852;3.816;2023-12-07T10:17:58;25.83;;;15.70;;
22764;SDS011;11549;50.852;3.816;2023-12-07T10:20:27;25.65;;;15.70;;
22764;SDS011;11549;50.852;3.816;2023-12-07T10:23:03;24.85;;;15.75;;
22764;SDS011;11549;50.852;3.816;2023-12-07T10:25:35;28.05;;;15.93;;
22764;SDS011;11549;50.852;3.816;2023-12-07T10:28:07;26.08;;;16.42;;
22764;SDS011;11549;50.852;3.816;2023-12-07T10:30:38;29.67;;;17.20;;
22764;SDS011;11549;50.852;3.816;2023-12-07T10:33:10;31.55;;;17.13;;
22764;SDS011;11549;50.852;3.816;2023-12-07T10:35:40;24.90;;;14.98;;
22764;SDS011;11549;50.852;3.816;2023-12-07T10:38:09;23.67;;;14.82;;
22764;SDS011;11549;50.852;3.816;2023-12-07T10:40:39;25.25;;;14.82;;
22764;SDS011;11549;50.852;3.816;2023-12-07T10:43:09;24.10;;;15.40;;
22764;SDS011;11549;50.852;3.816;2023-12-07T10:45:38;26.25;;;15.82;;
22764;SDS011;11549;50.852;3.816;2023-12-07T10:48:09;23.63;;;14.18;;
22764;SDS011;11549;50.852;3.816;2023-12-07T10:50:41;22.73;;;14.35;;
22764;SDS011;11549;50.852;3.816;2023-12-07T10:55:58;23.20;;;13.13;;
22764;SDS011;11549;50.852;3.816;2023-12-07T10:58:29;21.73;;;13.15;;
22764;SDS011;11549;50.852;3.816;2023-12-07T11:01:03;21.50;;;13.48;;
22764;SDS011;11549;50.852;3.816;2023-12-07T11:03:35;19.50;;;12.80;;
22764;SDS011;11549;50.852;3.816;2023-12-07T11:06:04;24.60;;;13.73;;
22764;SDS011;11549;50.852;3.816;2023-12-07T11:08:34;21.40;;;12.60;;
22764;SDS011;11549;50.852;3.816;2023-12-07T11:11:08;20.13;;;11.85;;
22764;SDS011;11549;50.852;3.816;2023-12-07T11:13:45;18.02;;;12.07;;
22764;SDS011;11549;50.852;3.816;2023-12-07T11:16:17;19.55;;;11.85;;
22764;SDS011;11549;50.852;3.816;2023-12-07T11:18:55;19.20;;;12.00;;
22764;SDS011;11549;50.852;3.816;2023-12-07T11:21:25;23.38;;;13.02;;
22764;SDS011;11549;50.852;3.816;2023-12-07T11:23:54;18.13;;;11.68;;
22764;SDS011;11549;50.852;3.816;2023-12-07T11:26:22;17.95;;;11.60;;
22764;SDS011;11549;50.852;3.816;2023-12-07T11:28:54;21.25;;;12.25;;
22764;SDS011;11549;50.852;3.816;2023-12-07T11:31:23;19.08;;;11.68;;
22764;SDS011;11549;50.852;3.816;2023-12-07T11:33:53;20.58;;;12.70;;
22764;SDS011;11549;50.852;3.816;2023-12-07T11:36:22;19.25;;;12.18;;
22764;SDS011;11549;50.852;3.816;2023-12-07T11:41:55;18.73;;;11.80;;
22764;SDS011;11549;50.852;3.816;2023-12-07T11:44:36;16.42;;;11.32;;
22764;SDS011;11549;50.852;3.816;2023-12-07T11:47:05;19.95;;;12.40;;
22764;SDS011;11549;50.852;3.816;2023-12-07T11:49:34;20.63;;;12.13;;
22764;SDS011;11549;50.852;3.816;2023-12-07T11:52:12;17.65;;;12.27;;
22764;SDS011;11549;50.852;3.816;2023-12-07T11:54:44;19.27;;;11.65;;
22764;SDS011;11549;50.852;3.816;2023-12-07T11:57:13;18.85;;;12.20;;
22764;SDS011;11549;50.852;3.816;2023-12-07T11:59:44;20.10;;;11.68;;
22764;SDS011;11549;50.852;3.816;2023-12-07T12:02:15;19.77;;;11.35;;
22764;SDS011;11549;50.852;3.816;2023-12-07T12:04:44;16.30;;;10.90;;
22764;SDS011;11549;50.852;3.816;2023-12-07T12:07:12;18.05;;;11.40;;
22764;SDS011;11549;50.852;3.816;2023-12-07T12:09:40;17.30;;;10.93;;
22764;SDS011;11549;50.852;3.816;2023-12-07T12:12:09;16.65;;;10.50;;
22764;SDS011;11549;50.852;3.816;2023-12-07T12:14:37;16.38;;;10.30;;
22764;SDS011;11549;50.852;3.816;2023-12-07T12:17:07;18.63;;;10.32;;
22764;SDS011;11549;50.852;3.816;2023-12-07T12:19:35;18.02;;;10.30;;
22764;SDS011;11549;50.852;3.816;2023-12-07T12:22:04;15.13;;;9.43;;
22764;SDS011;11549;50.852;3.816;2023-12-07T12:24:34;15.30;;;9.38;;
22764;SDS011;11549;50.852;3.816;2023-12-07T12:27:06;17.00;;;9.30;;
22764;SDS011;11549;50.852;3.816;2023-12-07T12:29:35;14.80;;;9.38;;
22764;SDS011;11549;50.852;3.816;2023-12-07T12:32:04;13.27;;;8.90;;
22764;SDS011;11549;50.852;3.816;2023-12-07T12:34:34;14.18;;;9.43;;
22764;SDS011;11549;50.852;3.816;2023-12-07T12:37:03;13.27;;;8.88;;
22764;SDS011;11549;50.852;3.816;2023-12-07T12:39:33;16.33;;;9.18;;
22764;SDS011;11549;50.852;3.816;2023-12-07T12:42:02;15.43;;;9.52;;
22764;SDS011;11549;50.852;3.816;2023-12-07T12:44:32;17.00;;;9.02;;
22764;SDS011;11549;50.852;3.816;2023-12-07T12:47:04;15.88;;;9.07;;
22764;SDS011;11549;50.852;3.816;2023-12-07T12:49:38;13.38;;;8.57;;
22764;SDS011;11549;50.852;3.816;2023-12-07T12:52:09;14.43;;;8.50;;
22764;SDS011;11549;50.852;3.816;2023-12-07T12:54:39;16.48;;;8.95;;
22764;SDS011;11549;50.852;3.816;2023-12-07T12:57:10;12.55;;;8.13;;
22764;SDS011;11549;50.852;3.816;2023-12-07T12:59:38;13.05;;;8.13;;
22764;SDS011;11549;50.852;3.816;2023-12-07T13:02:07;14.70;;;8.82;;
22764;SDS011;11549;50.852;3.816;2023-12-07T13:04:37;13.27;;;7.38;;
22764;SDS011;11549;50.852;3.816;2023-12-07T13:07:08;15.23;;;8.27;;
22764;SDS011;11549;50.852;3.816;2023-12-07T13:09:38;13.82;;;8.02;;
22764;SDS011;11549;50.852;3.816;2023-12-07T13:12:07;14.80;;;7.45;;
22764;SDS011;11549;50.852;3.816;2023-12-07T13:14:36;13.73;;;8.35;;
22764;SDS011;11549;50.852;3.816;2023-12-07T13:17:14;12.57;;;8.27;;
22764;SDS011;11549;50.852;3.816;2023-12-07T13:19:45;11.90;;;8.10;;
22764;SDS011;11549;50.852;3.816;2023-12-07T13:22:13;13.23;;;8.43;;
22764;SDS011;11549;50.852;3.816;2023-12-07T13:24:42;14.80;;;8.07;;
22764;SDS011;11549;50.852;3.816;2023-12-07T13:27:11;13.32;;;8.18;;
22764;SDS011;11549;50.852;3.816;2023-12-07T13:29:39;13.13;;;7.63;;
22764;SDS011;11549;50.852;3.816;2023-12-07T13:32:08;13.57;;;7.53;;
22764;SDS011;11549;50.852;3.816;2023-12-07T13:34:36;11.77;;;7.60;;
22764;SDS011;11549;50.852;3.816;2023-12-07T13:37:07;14.07;;;7.88;;
22764;SDS011;11549;50.852;3.816;2023-12-07T13:39:36;12.57;;;7.43;;
22764;SDS011;11549;50.852;3.816;2023-12-07T13:42:04;11.55;;;7.97;;
22764;SDS011;11549;50.852;3.816;2023-12-07T13:44:34;14.25;;;7.82;;
22764;SDS011;11549;50.852;3.816;2023-12-07T13:47:03;13.23;;;8.18;;
22764;SDS011;11549;50.852;3.816;2023-12-07T13:49:32;13.15;;;7.60;;
22764;SDS011;11549;50.852;3.816;2023-12-07T13:52:01;13.20;;;7.55;;
22764;SDS011;11549;50.852;3.816;2023-12-07T13:54:35;11.32;;;7.50;;
22764;SDS011;11549;50.852;3.816;2023-12-07T13:57:19;11.48;;;6.80;;
22764;SDS011;11549;50.852;3.816;2023-12-07T13:59:51;11.55;;;7.30;;
22764;SDS011;11549;50.852;3.816;2023-12-07T14:02:20;10.80;;;6.95;;
22764;SDS011;11549;50.852;3.816;2023-12-07T14:04:48;12.27;;;7.32;;
22764;SDS011;11549;50.852;3.816;2023-12-07T14:07:18;10.75;;;7.22;;
22764;SDS011;11549;50.852;3.816;2023-12-07T14:09:52;11.50;;;7.20;;
22764;SDS011;11549;50.852;3.816;2023-12-07T14:14:56;11.80;;;7.10;;
22764;SDS011;11549;50.852;3.816;2023-12-07T14:17:24;10.10;;;6.80;;
22764;SDS011;11549;50.852;3.816;2023-12-07T14:20:03;12.38;;;6.55;;
22764;SDS011;11549;50.852;3.816;2023-12-07T14:22:53;11.55;;;6.45;;
22764;SDS011;11549;50.852;3.816;2023-12-07T14:25:24;14.27;;;7.30;;
22764;SDS011;11549;50.852;3.816;2023-12-07T14:27:53;12.65;;;7.35;;
22764;SDS011;11549;50.852;3.816;2023-12-07T14:30:21;11.32;;;6.97;;
22764;SDS011;11549;50.852;3.816;2023-12-07T14:32:50;11.57;;;7.22;;
22764;SDS011;11549;50.852;3.816;2023-12-07T14:35:20;11.23;;;6.88;;
22764;SDS011;11549;50.852;3.816;2023-12-07T14:37:49;11.23;;;6.20;;
22764;SDS011;11549;50.852;3.816;2023-12-07T14:40:17;10.43;;;6.40;;
22764;SDS011;11549;50.852;3.816;2023-12-07T14:42:48;12.25;;;6.40;;
22764;SDS011;11549;50.852;3.816;2023-12-07T14:45:16;11.98;;;7.25;;
22764;SDS011;11549;50.852;3.816;2023-12-07T14:47:47;12.95;;;7.53;;